sensor_id;sensor_type;location;lat;lon;timestamp;pressure;altitude;pressure_sealevel;temperature;humidity
77112;BME280;66064;50.226;14.344;2024-01-15T00:00:44;97814.31;;;-0.02;82.74
77112;BME280;66064;50.226;14.344;2024-01-15T00:03:31;97808.03;;;-0.09;83.49
77112;BME280;66064;50.226;14.344;2024-01-15T00:05:57;97804.25;;;-0.21;83.83
77112;BME280;66064;50.226;14.344;2024-01-15T00:08:25;97804.22;;;-0.23;82.70
77112;BME280;66064;50.226;14.344;2024-01-15T00:10:51;97797.22;;;-0.24;83.08
77112;BME280;66064;50.226;14.344;2024-01-15T00:13:17;97786.59;;;-0.30;83.44
77112;BME280;66064;50.226;14.344;2024-01-15T00:15:44;97790.19;;;-0.26;82.74
77112;BME280;66064;50.226;14.344;2024-01-15T00:18:11;97791.09;;;-0.24;83.16
77112;BME280;66064;50.226;14.344;2024-01-15T00:20:39;97794.59;;;-0.24;83.45
77112;BME280;66064;50.226;14.344;2024-01-15T00:23:06;97776.16;;;-0.30;84.15
77112;BME280;66064;50.226;14.344;2024-01-15T00:25:32;97777.97;;;-0.27;82.78
77112;BME280;66064;50.226;14.344;2024-01-15T00:27:58;97761.41;;;-0.28;83.11
77112;BME280;66064;50.226;14.344;2024-01-15T00:30:25;97756.25;;;-0.25;82.48
77112;BME280;66064;50.226;14.344;2024-01-15T00:32:52;97763.34;;;-0.19;83.78
77112;BME280;66064;50.226;14.344;2024-01-15T00:35:19;97756.25;;;-0.25;83.56
77112;BME280;66064;50.226;14.344;2024-01-15T00:37:46;97742.53;;;-0.15;83.54
77112;BME280;66064;50.226;14.344;2024-01-15T00:40:12;97747.03;;;-0.09;82.59
77112;BME280;66064;50.226;14.344;2024-01-15T00:42:38;97747.84;;;-0.12;83.20
77112;BME280;66064;50.226;14.344;2024-01-15T00:45:05;97746.22;;;-0.07;82.45
77112;BME280;66064;50.226;14.344;2024-01-15T00:47:34;97742.75;;;-0.06;82.66
77112;BME280;66064;50.226;14.344;2024-01-15T00:50:01;97745.41;;;-0.04;82.12
77112;BME280;66064;50.226;14.344;2024-01-15T00:52:27;97748.88;;;-0.05;82.12
77112;BME280;66064;50.226;14.344;2024-01-15T00:54:54;97734.94;;;-0.04;81.66
77112;BME280;66064;50.226;14.344;2024-01-15T00:57:20;97749.88;;;0.02;82.20
77112;BME280;66064;50.226;14.344;2024-01-15T00:59:47;97731.34;;;-0.09;82.38
77112;BME280;66064;50.226;14.344;2024-01-15T01:02:13;97734.06;;;-0.05;82.04
77112;BME280;66064;50.226;14.344;2024-01-15T01:04:40;97742.09;;;0.05;82.58
77112;BME280;66064;50.226;14.344;2024-01-15T01:07:06;97728.94;;;0.00;81.25
77112;BME280;66064;50.226;14.344;2024-01-15T01:09:32;97720.91;;;-0.08;81.74
77112;BME280;66064;50.226;14.344;2024-01-15T01:11:59;97738.47;;;-0.02;82.15
77112;BME280;66064;50.226;14.344;2024-01-15T01:14:25;97726.25;;;-0.03;81.47
77112;BME280;66064;50.226;14.344;2024-01-15T01:16:51;97711.38;;;-0.06;80.92
77112;BME280;66064;50.226;14.344;2024-01-15T01:19:17;97725.44;;;-0.01;80.96
77112;BME280;66064;50.226;14.344;2024-01-15T01:21:44;97726.34;;;0.00;80.85
77112;BME280;66064;50.226;14.344;2024-01-15T01:24:10;97730.72;;;0.03;81.41
77112;BME280;66064;50.226;14.344;2024-01-15T01:26:37;97713.06;;;-0.08;81.24
77112;BME280;66064;50.226;14.344;2024-01-15T01:29:03;97709.59;;;-0.07;80.95
77112;BME280;66064;50.226;14.344;2024-01-15T01:31:29;97716.69;;;-0.03;80.28
77112;BME280;66064;50.226;14.344;2024-01-15T01:33:55;97702.47;;;-0.14;81.43
77112;BME280;66064;50.226;14.344;2024-01-15T01:36:21;97720.16;;;-0.04;81.20
77112;BME280;66064;50.226;14.344;2024-01-15T01:38:47;97708.00;;;-0.02;81.20
77112;BME280;66064;50.226;14.344;2024-01-15T01:41:14;97701.72;;;-0.08;80.43
77112;BME280;66064;50.226;14.344;2024-01-15T01:43:43;97692.31;;;-0.02;80.41
77112;BME280;66064;50.226;14.344;2024-01-15T01:46:09;97688.84;;;-0.01;81.34
77112;BME280;66064;50.226;14.344;2024-01-15T01:48:36;97682.75;;;0.02;80.11
77112;BME280;66064;50.226;14.344;2024-01-15T01:51:03;97674.88;;;0.00;81.30
77112;BME280;66064;50.226;14.344;2024-01-15T01:53:32;97676.47;;;-0.08;80.38
77112;BME280;66064;50.226;14.344;2024-01-15T01:56:00;97684.38;;;-0.05;80.73
77112;BME280;66064;50.226;14.344;2024-01-15T01:58:27;97672.19;;;-0.04;81.08
77112;BME280;66064;50.226;14.344;2024-01-15T02:00:56;97672.13;;;-0.07;80.75
77112;BME280;66064;50.226;14.344;2024-01-15T02:03:22;97685.94;;;-0.13;81.54
77112;BME280;66064;50.226;14.344;2024-01-15T02:05:49;97651.00;;;-0.18;81.21
77112;BME280;66064;50.226;14.344;2024-01-15T02:08:15;97663.09;;;-0.21;81.44
77112;BME280;66064;50.226;14.344;2024-01-15T02:10:42;97663.91;;;-0.24;81.59
77112;BME280;66064;50.226;14.344;2024-01-15T02:13:07;97668.34;;;-0.21;81.25
77112;BME280;66064;50.226;14.344;2024-01-15T02:15:35;97655.22;;;-0.23;81.19
77112;BME280;66064;50.226;14.344;2024-01-15T02:18:03;97667.50;;;-0.20;82.12
77112;BME280;66064;50.226;14.344;2024-01-15T02:20:29;97674.38;;;-0.24;81.74
77112;BME280;66064;50.226;14.344;2024-01-15T02:23:12;97663.84;;;-0.27;81.43
77112;BME280;66064;50.226;14.344;2024-01-15T02:25:44;97662.97;;;-0.27;82.02
77112;BME280;66064;50.226;14.344;2024-01-15T02:28:15;97662.06;;;-0.28;81.75
77112;BME280;66064;50.226;14.344;2024-01-15T02:30:44;97673.31;;;-0.32;81.43
77112;BME280;66064;50.226;14.344;2024-01-15T02:33:11;97670.69;;;-0.32;81.48
77112;BME280;66064;50.226;14.344;2024-01-15T02:35:38;97669.84;;;-0.32;82.18
77112;BME280;66064;50.226;14.344;2024-01-15T02:38:05;97663.72;;;-0.31;81.36
77112;BME280;66064;50.226;14.344;2024-01-15T02:40:32;97652.28;;;-0.38;80.91
77112;BME280;66064;50.226;14.344;2024-01-15T02:42:58;97675.94;;;-0.30;80.77
77112;BME280;66064;50.226;14.344;2024-01-15T02:45:25;97673.28;;;-0.33;81.82
77112;BME280;66064;50.226;14.344;2024-01-15T02:47:51;97673.34;;;-0.30;82.12
77112;BME280;66064;50.226;14.344;2024-01-15T02:50:17;97673.44;;;-0.26;82.25
77112;BME280;66064;50.226;14.344;2024-01-15T02:52:43;97664.63;;;-0.31;80.77
77112;BME280;66064;50.226;14.344;2024-01-15T02:55:11;97659.47;;;-0.28;82.67
77112;BME280;66064;50.226;14.344;2024-01-15T02:57:37;97646.47;;;-0.25;80.95
77112;BME280;66064;50.226;14.344;2024-01-15T03:00:04;97646.25;;;-0.36;81.48
77112;BME280;66064;50.226;14.344;2024-01-15T03:02:30;97650.72;;;-0.28;81.67
77112;BME280;66064;50.226;14.344;2024-01-15T03:04:59;97642.81;;;-0.33;82.11
77112;BME280;66064;50.226;14.344;2024-01-15T03:07:25;97635.63;;;-0.42;81.03
77112;BME280;66064;50.226;14.344;2024-01-15T03:09:52;97637.13;;;-0.53;82.59
77112;BME280;66064;50.226;14.344;2024-01-15T03:12:18;97629.88;;;-0.64;81.50
77112;BME280;66064;50.226;14.344;2024-01-15T03:14:44;97622.72;;;-0.73;82.74
77112;BME280;66064;50.226;14.344;2024-01-15T03:17:10;97635.75;;;-0.75;84.08
77112;BME280;66064;50.226;14.344;2024-01-15T03:19:38;97640.06;;;-0.77;83.21
77112;BME280;66064;50.226;14.344;2024-01-15T03:22:04;97644.31;;;-0.82;84.07
77112;BME280;66064;50.226;14.344;2024-01-15T03:24:31;97638.00;;;-0.90;84.39
77112;BME280;66064;50.226;14.344;2024-01-15T03:26:57;97655.53;;;-0.86;84.07
77112;BME280;66064;50.226;14.344;2024-01-15T03:29:24;97660.50;;;-0.95;83.45
77112;BME280;66064;50.226;14.344;2024-01-15T03:31:50;97678.25;;;-0.82;83.01
77112;BME280;66064;50.226;14.344;2024-01-15T03:34:16;97675.00;;;-0.72;83.58
77112;BME280;66064;50.226;14.344;2024-01-15T03:36:42;97673.41;;;-0.66;83.91
77112;BME280;66064;50.226;14.344;2024-01-15T03:39:08;97655.97;;;-0.67;83.37
77112;BME280;66064;50.226;14.344;2024-01-15T03:41:34;97669.88;;;-0.68;82.86
77112;BME280;66064;50.226;14.344;2024-01-15T03:44:00;97665.66;;;-0.62;83.18
77112;BME280;66064;50.226;14.344;2024-01-15T03:46:27;97667.53;;;-0.56;81.51
77112;BME280;66064;50.226;14.344;2024-01-15T03:48:53;97671.94;;;-0.54;82.79
77112;BME280;66064;50.226;14.344;2024-01-15T03:51:19;97679.75;;;-0.55;81.99
77112;BME280;66064;50.226;14.344;2024-01-15T03:53:45;97672.72;;;-0.58;81.69
77112;BME280;66064;50.226;14.344;2024-01-15T03:56:14;97668.41;;;-0.56;82.63
77112;BME280;66064;50.226;14.344;2024-01-15T03:58:40;97668.44;;;-0.54;81.72
77112;BME280;66064;50.226;14.344;2024-01-15T04:01:10;97671.75;;;-0.61;82.56
77112;BME280;66064;50.226;14.344;2024-01-15T04:03:37;97672.69;;;-0.59;81.21
77112;BME280;66064;50.226;14.344;2024-01-15T04:06:04;97670.06;;;-0.59;81.31
77112;BME280;66064;50.226;14.344;2024-01-15T04:08:30;97676.28;;;-0.54;80.20
77112;BME280;66064;50.226;14.344;2024-01-15T04:10:56;97677.13;;;-0.55;81.55
77112;BME280;66064;50.226;14.344;2024-01-15T04:13:23;97674.63;;;-0.51;80.77
77112;BME280;66064;50.226;14.344;2024-01-15T04:15:50;97674.69;;;-0.49;81.31
77112;BME280;66064;50.226;14.344;2024-01-15T04:18:16;97663.28;;;-0.53;80.92
77112;BME280;66064;50.226;14.344;2024-01-15T04:20:44;97665.00;;;-0.53;80.91
77112;BME280;66064;50.226;14.344;2024-01-15T04:23:10;97650.13;;;-0.56;80.20
77112;BME280;66064;50.226;14.344;2024-01-15T04:25:37;97644.72;;;-0.63;81.38
77112;BME280;66064;50.226;14.344;2024-01-15T04:28:04;97640.41;;;-0.61;81.48
77112;BME280;66064;50.226;14.344;2024-01-15T04:30:30;97656.13;;;-0.60;80.51
77112;BME280;66064;50.226;14.344;2024-01-15T04:32:57;97649.84;;;-0.68;80.77
77112;BME280;66064;50.226;14.344;2024-01-15T04:35:23;97665.69;;;-0.60;81.62
77112;BME280;66064;50.226;14.344;2024-01-15T04:37:50;97654.38;;;-0.59;81.83
77112;BME280;66064;50.226;14.344;2024-01-15T04:40:16;97645.63;;;-0.61;81.54
77112;BME280;66064;50.226;14.344;2024-01-15T04:42:42;97649.97;;;-0.62;82.00
77112;BME280;66064;50.226;14.344;2024-01-15T04:45:08;97639.44;;;-0.66;81.38
77112;BME280;66064;50.226;14.344;2024-01-15T04:47:34;97656.72;;;-0.72;81.86
77112;BME280;66064;50.226;14.344;2024-01-15T04:50:04;97661.22;;;-0.64;80.96
77112;BME280;66064;50.226;14.344;2024-01-15T04:52:31;97646.31;;;-0.70;80.94
77112;BME280;66064;50.226;14.344;2024-01-15T04:54:58;97665.69;;;-0.60;81.54
77112;BME280;66064;50.226;14.344;2024-01-15T04:57:24;97676.91;;;-0.66;81.55
77112;BME280;66064;50.226;14.344;2024-01-15T04:59:50;97656.97;;;-0.61;80.73
77112;BME280;66064;50.226;14.344;2024-01-15T05:02:16;97677.13;;;-0.55;80.57
77112;BME280;66064;50.226;14.344;2024-01-15T05:04:42;97663.16;;;-0.57;80.97
77112;BME280;66064;50.226;14.344;2024-01-15T05:07:08;97677.94;;;-0.58;82.46
77112;BME280;66064;50.226;14.344;2024-01-15T05:09:34;97669.94;;;-0.64;82.08
77112;BME280;66064;50.226;14.344;2024-01-15T05:12:01;97674.28;;;-0.64;81.56
77112;BME280;66064;50.226;14.344;2024-01-15T05:14:27;97663.06;;;-0.60;82.40
77112;BME280;66064;50.226;14.344;2024-01-15T05:16:53;97678.81;;;-0.57;81.00
77112;BME280;66064;50.226;14.344;2024-01-15T05:19:19;97670.00;;;-0.62;80.42
77112;BME280;66064;50.226;14.344;2024-01-15T05:21:45;97691.13;;;-0.53;79.69
77112;BME280;66064;50.226;14.344;2024-01-15T05:24:11;97702.38;;;-0.56;81.48
77112;BME280;66064;50.226;14.344;2024-01-15T05:26:38;97699.88;;;-0.51;80.89
77112;BME280;66064;50.226;14.344;2024-01-15T05:29:04;97702.53;;;-0.48;81.59
77112;BME280;66064;50.226;14.344;2024-01-15T05:31:31;97706.16;;;-0.43;80.28
77112;BME280;66064;50.226;14.344;2024-01-15T05:33:58;97704.63;;;-0.35;78.86
77112;BME280;66064;50.226;14.344;2024-01-15T05:36:24;97704.63;;;-0.35;79.66
77112;BME280;66064;50.226;14.344;2024-01-15T05:38:50;97697.69;;;-0.33;78.42
77112;BME280;66064;50.226;14.344;2024-01-15T05:41:18;97693.16;;;-0.40;79.45
77112;BME280;66064;50.226;14.344;2024-01-15T05:43:43;97702.00;;;-0.35;78.83
77112;BME280;66064;50.226;14.344;2024-01-15T05:46:09;97670.53;;;-0.40;77.85
77112;BME280;66064;50.226;14.344;2024-01-15T05:48:37;97679.94;;;-0.46;78.18
77112;BME280;66064;50.226;14.344;2024-01-15T05:51:04;97696.63;;;-0.41;78.18
77112;BME280;66064;50.226;14.344;2024-01-15T05:53:29;97688.72;;;-0.44;78.46
77112;BME280;66064;50.226;14.344;2024-01-15T05:55:56;97684.22;;;-0.51;78.17
77112;BME280;66064;50.226;14.344;2024-01-15T05:58:22;97675.44;;;-0.53;78.05
77112;BME280;66064;50.226;14.344;2024-01-15T06:00:48;97672.59;;;-0.62;77.43
77112;BME280;66064;50.226;14.344;2024-01-15T06:03:15;97683.84;;;-0.66;77.72
77112;BME280;66064;50.226;14.344;2024-01-15T06:05:42;97694.94;;;-0.75;79.23
77112;BME280;66064;50.226;14.344;2024-01-15T06:08:08;97680.88;;;-0.80;78.17
77112;BME280;66064;50.226;14.344;2024-01-15T06:10:34;97704.16;;;-0.89;78.31
77112;BME280;66064;50.226;14.344;2024-01-15T06:13:00;97710.06;;;-0.98;78.67
77112;BME280;66064;50.226;14.344;2024-01-15T06:15:27;97705.69;;;-0.99;79.12
77112;BME280;66064;50.226;14.344;2024-01-15T06:17:52;97710.69;;;-1.07;80.25
77112;BME280;66064;50.226;14.344;2024-01-15T06:20:20;97710.56;;;-1.11;79.24
77112;BME280;66064;50.226;14.344;2024-01-15T06:22:46;97703.50;;;-1.15;79.38
77112;BME280;66064;50.226;14.344;2024-01-15T06:25:12;97707.84;;;-1.16;79.23
77112;BME280;66064;50.226;14.344;2024-01-15T06:27:38;97710.56;;;-1.11;79.14
77112;BME280;66064;50.226;14.344;2024-01-15T06:30:04;97701.78;;;-1.13;80.00
77112;BME280;66064;50.226;14.344;2024-01-15T06:32:31;97705.28;;;-1.14;79.08
77112;BME280;66064;50.226;14.344;2024-01-15T06:34:57;97703.38;;;-1.20;80.23
77112;BME280;66064;50.226;14.344;2024-01-15T06:37:23;97699.88;;;-1.20;79.43
77112;BME280;66064;50.226;14.344;2024-01-15T06:39:49;97704.78;;;-1.32;80.39
77112;BME280;66064;50.226;14.344;2024-01-15T06:42:15;97711.78;;;-1.31;80.92
77112;BME280;66064;50.226;14.344;2024-01-15T06:44:41;97704.66;;;-1.37;81.17
77112;BME280;66064;50.226;14.344;2024-01-15T06:47:06;97715.31;;;-1.28;79.85
77112;BME280;66064;50.226;14.344;2024-01-15T06:49:32;97725.50;;;-1.38;80.39
77112;BME280;66064;50.226;14.344;2024-01-15T06:51:58;97724.75;;;-1.34;79.82
77112;BME280;66064;50.226;14.344;2024-01-15T06:54:25;97725.00;;;-1.24;79.68
77112;BME280;66064;50.226;14.344;2024-01-15T06:56:52;97730.41;;;-1.18;79.86
77112;BME280;66064;50.226;14.344;2024-01-15T06:59:18;97709.84;;;-1.06;78.30
77112;BME280;66064;50.226;14.344;2024-01-15T07:01:43;97729.34;;;-0.91;78.34
77112;BME280;66064;50.226;14.344;2024-01-15T07:04:11;97713.34;;;-1.05;79.08
77112;BME280;66064;50.226;14.344;2024-01-15T07:06:36;97719.69;;;-0.94;77.85
77112;BME280;66064;50.226;14.344;2024-01-15T07:09:03;97739.00;;;-0.89;78.13
77112;BME280;66064;50.226;14.344;2024-01-15T07:11:29;97733.78;;;-0.89;77.82
77112;BME280;66064;50.226;14.344;2024-01-15T07:13:55;97721.56;;;-0.90;79.01
77112;BME280;66064;50.226;14.344;2024-01-15T07:16:21;97717.22;;;-0.89;77.90
77112;BME280;66064;50.226;14.344;2024-01-15T07:18:47;97753.06;;;-0.84;77.42
77112;BME280;66064;50.226;14.344;2024-01-15T07:21:13;97745.16;;;-0.87;77.70
77112;BME280;66064;50.226;14.344;2024-01-15T07:23:39;97738.31;;;-0.82;77.98
77112;BME280;66064;50.226;14.344;2024-01-15T07:26:05;97745.28;;;-0.82;77.13
77112;BME280;66064;50.226;14.344;2024-01-15T07:28:31;97736.38;;;-0.89;78.01
77112;BME280;66064;50.226;14.344;2024-01-15T07:30:57;97727.44;;;-0.98;77.61
77112;BME280;66064;50.226;14.344;2024-01-15T07:33:23;97747.72;;;-0.88;77.43
77112;BME280;66064;50.226;14.344;2024-01-15T07:35:49;97749.56;;;-0.84;77.89
77112;BME280;66064;50.226;14.344;2024-01-15T07:38:15;97740.84;;;-0.85;78.16
77112;BME280;66064;50.226;14.344;2024-01-15T07:40:41;97751.28;;;-0.85;77.77
77112;BME280;66064;50.226;14.344;2024-01-15T07:43:07;97753.38;;;-0.72;77.94
77112;BME280;66064;50.226;14.344;2024-01-15T07:45:33;97758.34;;;-0.81;77.68
77112;BME280;66064;50.226;14.344;2024-01-15T07:47:59;97755.22;;;-0.67;78.33
77112;BME280;66064;50.226;14.344;2024-01-15T07:50:25;97741.31;;;-0.66;76.83
77112;BME280;66064;50.226;14.344;2024-01-15T07:52:51;97760.66;;;-0.58;77.24
77112;BME280;66064;50.226;14.344;2024-01-15T07:55:19;97745.19;;;-0.51;76.06
77112;BME280;66064;50.226;14.344;2024-01-15T07:57:45;97740.84;;;-0.50;75.00
77112;BME280;66064;50.226;14.344;2024-01-15T08:00:11;97724.59;;;-0.37;75.59
77112;BME280;66064;50.226;14.344;2024-01-15T08:02:38;97737.25;;;-0.18;74.54
77112;BME280;66064;50.226;14.344;2024-01-15T08:05:04;97728.88;;;-0.03;73.91
77112;BME280;66064;50.226;14.344;2024-01-15T08:07:30;97734.69;;;-0.16;73.64
77112;BME280;66064;50.226;14.344;2024-01-15T08:09:56;97730.72;;;0.03;73.90
77112;BME280;66064;50.226;14.344;2024-01-15T08:12:22;97730.59;;;-0.04;73.60
77112;BME280;66064;50.226;14.344;2024-01-15T08:14:48;97726.47;;;0.08;73.07
77112;BME280;66064;50.226;14.344;2024-01-15T08:17:15;97702.75;;;-0.02;72.93
77112;BME280;66064;50.226;14.344;2024-01-15T08:19:42;97723.09;;;0.12;74.08
77112;BME280;66064;50.226;14.344;2024-01-15T08:22:08;97715.34;;;0.18;73.04
77112;BME280;66064;50.226;14.344;2024-01-15T08:24:35;97710.13;;;0.18;71.80
77112;BME280;66064;50.226;14.344;2024-01-15T08:27:01;97723.94;;;0.11;72.21
77112;BME280;66064;50.226;14.344;2024-01-15T08:29:27;97730.88;;;0.09;72.05
77112;BME280;66064;50.226;14.344;2024-01-15T08:31:53;97720.41;;;0.09;72.30
77112;BME280;66064;50.226;14.344;2024-01-15T08:34:20;97730.78;;;0.06;73.87
77112;BME280;66064;50.226;14.344;2024-01-15T08:36:46;97738.63;;;0.06;73.58
77112;BME280;66064;50.226;14.344;2024-01-15T08:39:12;97737.56;;;-0.04;73.14
77112;BME280;66064;50.226;14.344;2024-01-15T08:41:39;97736.91;;;0.06;74.52
77112;BME280;66064;50.226;14.344;2024-01-15T08:44:04;97747.09;;;-0.06;73.73
77112;BME280;66064;50.226;14.344;2024-01-15T08:46:31;97730.72;;;0.03;73.57
77112;BME280;66064;50.226;14.344;2024-01-15T08:48:57;97725.69;;;0.12;72.74
77112;BME280;66064;50.226;14.344;2024-01-15T08:51:23;97746.69;;;0.15;73.25
77112;BME280;66064;50.226;14.344;2024-01-15T08:53:49;97744.97;;;0.17;73.06
77112;BME280;66064;50.226;14.344;2024-01-15T08:56:15;97729.59;;;0.30;72.62
77112;BME280;66064;50.226;14.344;2024-01-15T08:58:41;97718.53;;;0.44;70.15
77112;BME280;66064;50.226;14.344;2024-01-15T09:01:07;97746.94;;;0.69;70.59
77112;BME280;66064;50.226;14.344;2024-01-15T09:03:33;97731.88;;;0.57;69.93
77112;BME280;66064;50.226;14.344;2024-01-15T09:06:00;97730.13;;;0.56;71.04
77112;BME280;66064;50.226;14.344;2024-01-15T09:08:26;97729.94;;;0.47;70.85
77112;BME280;66064;50.226;14.344;2024-01-15T09:10:53;97706.97;;;0.34;70.50
77112;BME280;66064;50.226;14.344;2024-01-15T09:13:19;97724.72;;;0.47;70.56
77112;BME280;66064;50.226;14.344;2024-01-15T09:15:46;97737.84;;;0.50;70.98
77112;BME280;66064;50.226;14.344;2024-01-15T09:18:11;97740.41;;;0.47;71.07
77112;BME280;66064;50.226;14.344;2024-01-15T09:20:37;97746.53;;;0.48;69.96
77112;BME280;66064;50.226;14.344;2024-01-15T09:23:04;97732.06;;;0.66;70.48
77112;BME280;66064;50.226;14.344;2024-01-15T09:25:30;97745.91;;;0.61;70.88
77112;BME280;66064;50.226;14.344;2024-01-15T09:27:55;97725.91;;;0.63;69.92
77112;BME280;66064;50.226;14.344;2024-01-15T09:30:22;97728.38;;;0.57;70.94
77112;BME280;66064;50.226;14.344;2024-01-15T09:32:47;97723.03;;;0.52;69.69
77112;BME280;66064;50.226;14.344;2024-01-15T09:35:14;97718.88;;;0.60;69.91
77112;BME280;66064;50.226;14.344;2024-01-15T09:37:40;97714.41;;;0.56;69.55
77112;BME280;66064;50.226;14.344;2024-01-15T09:40:08;97709.25;;;0.59;69.13
77112;BME280;66064;50.226;14.344;2024-01-15T09:42:39;97703.13;;;0.59;69.51
77112;BME280;66064;50.226;14.344;2024-01-15T09:45:06;97702.31;;;0.61;69.90
77112;BME280;66064;50.226;14.344;2024-01-15T09:47:32;97695.41;;;0.66;69.44
77112;BME280;66064;50.226;14.344;2024-01-15T09:49:58;97694.44;;;0.60;68.70
77112;BME280;66064;50.226;14.344;2024-01-15T09:52:25;97698.88;;;0.65;69.26
77112;BME280;66064;50.226;14.344;2024-01-15T09:54:51;97693.59;;;0.62;69.77
77112;BME280;66064;50.226;14.344;2024-01-15T09:57:18;97697.00;;;0.58;69.10
77112;BME280;66064;50.226;14.344;2024-01-15T09:59:44;97694.44;;;0.60;69.09
77112;BME280;66064;50.226;14.344;2024-01-15T10:02:13;97702.34;;;0.63;68.42
77112;BME280;66064;50.226;14.344;2024-01-15T10:04:44;97694.28;;;0.54;68.63
77112;BME280;66064;50.226;14.344;2024-01-15T10:07:15;97692.88;;;0.71;68.67
77112;BME280;66064;50.226;14.344;2024-01-15T10:09:42;97706.03;;;0.74;68.43
77112;BME280;66064;50.226;14.344;2024-01-15T10:12:09;97714.84;;;0.78;68.57
77112;BME280;66064;50.226;14.344;2024-01-15T10:14:37;97705.88;;;0.66;68.05
77112;BME280;66064;50.226;14.344;2024-01-15T10:17:23;97708.41;;;0.60;68.02
77112;BME280;66064;50.226;14.344;2024-01-15T10:19:50;97702.38;;;0.64;68.35
77112;BME280;66064;50.226;14.344;2024-01-15T10:22:16;97693.69;;;0.68;68.64
77112;BME280;66064;50.226;14.344;2024-01-15T10:24:42;97700.69;;;0.69;68.70
77112;BME280;66064;50.226;14.344;2024-01-15T10:27:08;97697.31;;;0.75;68.67
77112;BME280;66064;50.226;14.344;2024-01-15T10:29:35;97680.75;;;0.75;68.91
77112;BME280;66064;50.226;14.344;2024-01-15T10:32:03;97689.88;;;0.98;67.92
77112;BME280;66064;50.226;14.344;2024-01-15T10:34:30;97686.66;;;1.13;67.34
77112;BME280;66064;50.226;14.344;2024-01-15T10:36:56;97669.84;;;1.00;67.57
77112;BME280;66064;50.226;14.344;2024-01-15T10:39:22;97693.84;;;1.24;67.81
77112;BME280;66064;50.226;14.344;2024-01-15T10:41:49;97675.47;;;1.23;67.14
77112;BME280;66064;50.226;14.344;2024-01-15T10:44:17;97670.25;;;1.24;66.85
77112;BME280;66064;50.226;14.344;2024-01-15T10:46:43;97664.09;;;1.21;67.09
77112;BME280;66064;50.226;14.344;2024-01-15T10:49:11;97668.56;;;1.26;67.30
77112;BME280;66064;50.226;14.344;2024-01-15T10:51:38;97669.41;;;1.25;66.12
77112;BME280;66064;50.226;14.344;2024-01-15T10:54:04;97660.75;;;1.31;66.49
77112;BME280;66064;50.226;14.344;2024-01-15T10:56:31;97662.47;;;1.30;66.08
77112;BME280;66064;50.226;14.344;2024-01-15T10:59:00;97661.78;;;1.40;66.21
77112;BME280;66064;50.226;14.344;2024-01-15T11:01:26;97645.91;;;1.31;66.27
77112;BME280;66064;50.226;14.344;2024-01-15T11:03:54;97661.75;;;1.39;65.72
77112;BME280;66064;50.226;14.344;2024-01-15T11:06:24;97666.88;;;1.31;66.83
77112;BME280;66064;50.226;14.344;2024-01-15T11:08:52;97663.38;;;1.32;65.88
77112;BME280;66064;50.226;14.344;2024-01-15T11:11:18;97644.31;;;1.39;65.76
77112;BME280;66064;50.226;14.344;2024-01-15T11:13:46;97653.19;;;1.51;65.52
77112;BME280;66064;50.226;14.344;2024-01-15T11:16:15;97658.66;;;1.66;64.47
77112;BME280;66064;50.226;14.344;2024-01-15T11:21:24;97661.63;;;1.89;63.69
77112;BME280;66064;50.226;14.344;2024-01-15T11:23:57;97668.78;;;2.00;64.65
77112;BME280;66064;50.226;14.344;2024-01-15T11:29:10;97656.72;;;2.16;63.40
77112;BME280;66064;50.226;14.344;2024-01-15T11:34:09;97662.38;;;1.80;63.67
77112;BME280;66064;50.226;14.344;2024-01-15T11:42:03;97648.53;;;1.90;63.92
77112;BME280;66064;50.226;14.344;2024-01-15T11:44:30;97649.19;;;2.42;62.89
77112;BME280;66064;50.226;14.344;2024-01-15T11:47:01;97647.72;;;2.68;62.02
77112;BME280;66064;50.226;14.344;2024-01-15T11:52:17;97629.34;;;3.73;58.54
77112;BME280;66064;50.226;14.344;2024-01-15T12:00:13;97620.47;;;3.62;59.25
77112;BME280;66064;50.226;14.344;2024-01-15T12:02:42;97598.41;;;3.37;58.82
77112;BME280;66064;50.226;14.344;2024-01-15T12:05:10;97588.41;;;4.57;55.28
77112;BME280;66064;50.226;14.344;2024-01-15T12:07:39;97603.13;;;6.53;52.00
77112;BME280;66064;50.226;14.344;2024-01-15T12:10:10;97602.84;;;6.98;50.07
77112;BME280;66064;50.226;14.344;2024-01-15T12:15:10;97587.06;;;6.86;49.43
77112;BME280;66064;50.226;14.344;2024-01-15T12:17:36;97594.41;;;6.39;50.02
77112;BME280;66064;50.226;14.344;2024-01-15T12:20:05;97594.53;;;6.08;50.98
77112;BME280;66064;50.226;14.344;2024-01-15T12:22:32;97581.19;;;6.36;50.66
77112;BME280;66064;50.226;14.344;2024-01-15T12:24:58;97596.16;;;6.38;50.43
77112;BME280;66064;50.226;14.344;2024-01-15T12:27:24;97583.94;;;6.14;50.38
77112;BME280;66064;50.226;14.344;2024-01-15T12:29:53;97586.66;;;5.93;51.51
77112;BME280;66064;50.226;14.344;2024-01-15T12:32:19;97580.28;;;6.46;49.69
77112;BME280;66064;50.226;14.344;2024-01-15T12:34:46;97592.44;;;6.77;49.51
77112;BME280;66064;50.226;14.344;2024-01-15T12:37:12;97597.66;;;6.86;49.34
77112;BME280;66064;50.226;14.344;2024-01-15T12:39:38;97598.13;;;4.88;53.38
77112;BME280;66064;50.226;14.344;2024-01-15T12:42:04;97615.31;;;3.72;55.79
77112;BME280;66064;50.226;14.344;2024-01-15T12:44:31;97635.97;;;3.21;58.45
77112;BME280;66064;50.226;14.344;2024-01-15T12:46:57;97606.78;;;2.90;59.61
77112;BME280;66064;50.226;14.344;2024-01-15T12:49:24;97602.22;;;2.69;60.55
77112;BME280;66064;50.226;14.344;2024-01-15T12:51:54;97607.53;;;2.75;60.36
77112;BME280;66064;50.226;14.344;2024-01-15T12:54:21;97609.22;;;2.69;60.40
77112;BME280;66064;50.226;14.344;2024-01-15T12:56:47;97602.16;;;2.65;60.79
77112;BME280;66064;50.226;14.344;2024-01-15T12:59:14;97604.75;;;3.68;57.25
77112;BME280;66064;50.226;14.344;2024-01-15T13:01:40;97601.56;;;4.45;55.61
77112;BME280;66064;50.226;14.344;2024-01-15T13:04:07;97602.53;;;4.83;53.75
77112;BME280;66064;50.226;14.344;2024-01-15T13:06:36;97611.38;;;5.34;52.69
77112;BME280;66064;50.226;14.344;2024-01-15T13:09:04;97592.84;;;5.58;50.83
77112;BME280;66064;50.226;14.344;2024-01-15T13:11:32;97590.22;;;5.55;51.62
77112;BME280;66064;50.226;14.344;2024-01-15T13:13:59;97580.50;;;5.76;50.41